Time;durP1;ratioP1;P1;durP2;ratioP2;P2;SDS_P1;SDS_P2;PMS_P1;PMS_P2;Temp;Humidity;BMP_temperature;BMP_pressure;BME280_temperature;BME280_humidity;BME280_pressure;Samples;Min_cycle;Max_cycle;Signal;HPM_P1;HPM_P2
2022/06/01 00:00:41;;;;;;;2.73;2.53;;;20.10;44.70;;;;;;5090715;28;20492;-89
2022/06/01 00:03:08;;;;;;;3.60;2.50;;;20.00;44.20;;;;;;5051264;28;20455;-89
2022/06/01 00:05:35;;;;;;;2.70;2.50;;;19.60;44.90;;;;;;5054891;28;20467;-88
2022/06/01 00:08:03;;;;;;;2.90;2.70;;;19.40;45.20;;;;;;5073246;28;20475;-90
2022/06/01 00:10:30;;;;;;;3.30;3.03;;;19.50;45.30;;;;;;5072807;28;20482;-90
2022/06/01 00:12:58;;;;;;;3.23;2.93;;;19.50;45.10;;;;;;5049624;28;20455;-91
2022/06/01 00:15:27;;;;;;;2.90;2.70;;;19.50;45.40;;;;;;5063021;28;20870;-88
2022/06/01 00:17:57;;;;;;;4.63;3.23;;;19.10;45.90;;;;;;5060280;28;20459;-90
2022/06/01 00:20:24;;;;;;;3.43;2.23;;;18.80;46.90;;;;;;5082684;28;20471;-91
2022/06/01 00:22:51;;;;;;;3.50;3.20;;;18.80;47.10;;;;;;5048474;28;20474;-90
2022/06/01 00:25:18;;;;;;;6.93;3.47;;;18.90;46.70;;;;;;5071731;28;20453;-90
2022/06/01 00:27:45;;;;;;;3.27;2.97;;;19.00;47.00;;;;;;5090355;28;20446;-89
2022/06/01 00:30:15;;;;;;;3.40;3.20;;;18.80;47.00;;;;;;5063583;28;20489;-89
2022/06/01 00:32:42;;;;;;;2.80;2.60;;;18.30;47.80;;;;;;5065463;28;20447;-91
2022/06/01 00:35:13;;;;;;;3.33;3.03;;;18.50;47.80;;;;;;5079780;28;20462;-90
2022/06/01 00:37:40;;;;;;;3.10;2.90;;;18.60;47.60;;;;;;5089697;28;20447;-90
2022/06/01 00:40:09;;;;;;;3.40;3.10;;;18.80;47.50;;;;;;5055975;28;20467;-89
2022/06/01 00:42:39;;;;;;;3.63;3.07;;;18.60;46.90;;;;;;5071969;28;20483;-89
2022/06/01 00:45:08;;;;;;;3.53;3.23;;;18.50;47.40;;;;;;5039740;28;20446;-89
2022/06/01 00:47:35;;;;;;;4.40;4.10;;;18.60;47.20;;;;;;5057775;28;20497;-90
2022/06/01 00:50:07;;;;;;;3.30;3.00;;;18.50;46.70;;;;;;5045473;28;21010;-90
2022/06/01 00:52:40;;;;;;;3.37;3.07;;;18.60;47.00;;;;;;5058378;28;20447;-89
2022/06/01 00:55:12;;;;;;;3.33;3.13;;;18.60;47.10;;;;;;5072614;28;20448;-90
2022/06/01 00:57:41;;;;;;;3.20;2.90;;;18.50;46.90;;;;;;5058881;28;20443;-90
2022/06/01 01:00:11;;;;;;;3.50;3.20;;;18.40;47.10;;;;;;5052024;28;20650;-89
2022/06/01 01:02:39;;;;;;;6.20;3.57;;;18.40;46.90;;;;;;5057087;28;20971;-91
2022/06/01 01:05:10;;;;;;;3.10;2.67;;;18.40;47.20;;;;;;5058304;28;20512;-89
2022/06/01 01:07:41;;;;;;;3.30;3.00;;;18.50;47.00;;;;;;5070978;28;20447;-90
2022/06/01 01:10:09;;;;;;;3.20;2.90;;;18.40;48.50;;;;;;5059178;28;20459;-90
2022/06/01 01:15:21;;;;;;;3.23;3.03;;;18.50;48.10;;;;;;5036556;28;20442;-90
2022/06/01 01:17:50;;;;;;;8.83;3.73;;;18.50;47.90;;;;;;5042741;28;20501;-90
2022/06/01 01:20:18;;;;;;;4.77;3.00;;;18.40;47.80;;;;;;5045271;28;20546;-91
2022/06/01 01:22:52;;;;;;;3.80;3.17;;;18.40;47.60;;;;;;5052944;28;20512;-91
2022/06/01 01:25:28;;;;;;;3.90;3.20;;;18.50;47.40;;;;;;5069841;28;20446;-89
2022/06/01 01:27:57;;;;;;;4.23;3.10;;;18.40;47.30;;;;;;5059051;28;20974;-90
2022/06/01 01:30:51;;;;;;;4.57;3.10;;;18.30;47.20;;;;;;5065614;28;20833;-89
2022/06/01 01:33:21;;;;;;;3.47;3.13;;;18.10;47.80;;;;;;5048010;28;20480;-89
2022/06/01 01:35:50;;;;;;;3.63;3.10;;;18.10;47.70;;;;;;5057443;28;21087;-89
2022/06/01 01:38:24;;;;;;;3.73;3.40;;;18.10;47.40;;;;;;5063705;28;20530;-90
2022/06/01 01:41:09;;;;;;;3.77;3.37;;;18.20;47.40;;;;;;5062486;28;20474;-90
2022/06/01 01:43:44;;;;;;;3.70;3.13;;;18.20;47.10;;;;;;5093692;28;20937;-90
2022/06/01 01:46:11;;;;;;;4.97;3.90;;;18.20;47.20;;;;;;5056987;28;20569;-90
2022/06/01 01:48:39;;;;;;;4.53;3.67;;;18.20;47.10;;;;;;5049355;28;20498;-88
2022/06/01 01:51:06;;;;;;;3.73;3.43;;;18.10;47.10;;;;;;5051337;28;20447;-90
2022/06/01 01:53:34;;;;;;;5.60;3.47;;;18.10;47.30;;;;;;5060869;28;20811;-91
2022/06/01 01:56:27;;;;;;;3.40;3.10;;;18.10;47.50;;;;;;5071751;28;20522;-90
2022/06/01 01:59:09;;;;;;;4.20;3.80;;;18.00;47.40;;;;;;5066602;28;21021;-90
2022/06/01 02:01:43;;;;;;;3.63;3.33;;;18.00;47.40;;;;;;5074057;28;20825;-90
2022/06/01 02:07:06;;;;;;;3.20;3.00;;;17.60;48.30;;;;;;5089417;28;21044;-90
2022/06/01 02:15:01;;;;;;;3.50;3.20;;;17.40;48.60;;;;;;5092016;28;20490;-89
2022/06/01 02:17:32;;;;;;;6.10;3.70;;;17.40;48.10;;;;;;5075045;28;21020;-90
2022/06/01 02:20:03;;;;;;;3.63;3.33;;;17.50;47.90;;;;;;5049499;28;20546;-89
2022/06/01 02:22:30;;;;;;;3.67;3.37;;;17.50;47.90;;;;;;5041914;28;20447;-90
2022/06/01 02:24:57;;;;;;;4.07;3.60;;;17.60;48.00;;;;;;5057693;28;20922;-89
2022/06/01 02:27:25;;;;;;;3.73;3.43;;;17.60;47.90;;;;;;5058726;28;20477;-91
2022/06/01 02:29:58;;;;;;;5.50;3.60;;;17.60;47.80;;;;;;5059551;28;20479;-90
2022/06/01 02:32:28;;;;;;;4.43;4.03;;;17.50;47.70;;;;;;5065715;28;20443;-91
2022/06/01 02:34:58;;;;;;;3.67;3.37;;;17.50;47.70;;;;;;5081250;28;20458;-89
2022/06/01 02:37:29;;;;;;;4.27;3.87;;;17.40;47.70;;;;;;5091447;28;20452;-89
2022/06/01 02:39:58;;;;;;;3.67;3.37;;;17.40;47.90;;;;;;5059384;28;20466;-90
2022/06/01 02:42:29;;;;;;;5.37;3.80;;;17.40;48.20;;;;;;5075286;28;20455;-90
2022/06/01 02:44:56;;;;;;;4.17;3.77;;;17.30;48.30;;;;;;5076200;28;20470;-90
2022/06/01 02:47:27;;;;;;;4.33;3.83;;;17.20;48.50;;;;;;5040800;28;20435;-91
2022/06/01 02:49:54;;;;;;;3.53;3.23;;;17.20;48.60;;;;;;5046254;28;20474;-90
2022/06/01 02:52:21;;;;;;;4.90;4.40;;;17.20;48.40;;;;;;5071754;28;20887;-90
2022/06/01 02:54:48;;;;;;;4.10;3.40;;;17.20;48.40;;;;;;5057904;28;20522;-90
2022/06/01 02:57:16;;;;;;;5.73;3.37;;;17.20;48.50;;;;;;5049092;28;20535;-90
2022/06/01 02:59:43;;;;;;;3.57;3.27;;;17.10;48.50;;;;;;5055843;28;20579;-90
2022/06/01 03:02:10;;;;;;;5.00;3.83;;;17.10;48.40;;;;;;5054883;28;20448;-90
2022/06/01 03:04:40;;;;;;;4.17;3.77;;;16.50;49.20;;;;;;5059516;28;20456;-89
2022/06/01 03:07:14;;;;;;;5.20;3.10;;;16.40;49.90;;;;;;5057040;28;20481;-89
2022/06/01 03:09:42;;;;;;;8.40;4.00;;;16.50;49.60;;;;;;5039964;28;20471;-89
2022/06/01 03:12:10;;;;;;;4.13;3.73;;;16.50;48.90;;;;;;5053635;28;20439;-89
2022/06/01 03:14:37;;;;;;;3.30;3.10;;;16.50;49.10;;;;;;5063027;28;20448;-88
2022/06/01 03:17:05;;;;;;;5.53;3.60;;;16.60;49.20;;;;;;5063732;28;20892;-91
2022/06/01 03:19:32;;;;;;;4.30;3.90;;;16.60;49.00;;;;;;5056056;28;20543;-91
2022/06/01 03:22:01;;;;;;;6.93;4.03;;;16.60;49.00;;;;;;5064002;28;21276;-90
2022/06/01 03:24:28;;;;;;;5.00;3.90;;;16.60;49.20;;;;;;5048255;28;20504;-89
2022/06/01 03:26:55;;;;;;;3.70;3.40;;;16.60;49.50;;;;;;5048469;28;20436;-90
2022/06/01 03:29:24;;;;;;;3.73;3.43;;;16.60;49.40;;;;;;5040194;28;20920;-90
2022/06/01 03:31:51;;;;;;;5.43;4.33;;;16.60;49.00;;;;;;5064631;28;20462;-88
2022/06/01 03:34:18;;;;;;;3.33;3.03;;;16.60;49.40;;;;;;5047209;28;20489;-90
2022/06/01 03:36:46;;;;;;;5.17;3.93;;;16.60;49.40;;;;;;5055326;28;20540;-91
2022/06/01 03:39:14;;;;;;;4.10;3.57;;;16.60;49.70;;;;;;5059008;28;20474;-90
2022/06/01 03:41:41;;;;;;;4.37;3.97;;;16.60;49.70;;;;;;5043076;28;20779;-89
2022/06/01 03:46:53;;;;;;;4.40;4.07;;;16.60;49.70;;;;;;5038740;28;20965;-90
2022/06/01 03:49:20;;;;;;;4.23;3.80;;;16.50;49.90;;;;;;5061964;28;21076;-89
2022/06/01 03:51:47;;;;;;;7.63;4.67;;;16.40;49.50;;;;;;5058879;28;20492;-89
2022/06/01 03:54:16;;;;;;;5.30;4.03;;;16.40;49.60;;;;;;5044679;28;20551;-90
2022/06/01 03:56:44;;;;;;;4.17;3.87;;;16.40;49.80;;;;;;5072230;28;20447;-90
2022/06/01 03:59:11;;;;;;;5.33;4.37;;;16.40;49.60;;;;;;5054427;28;20469;-90
2022/06/01 04:01:38;;;;;;;5.83;4.30;;;16.40;49.80;;;;;;5046154;28;21006;-90
2022/06/01 04:04:05;;;;;;;6.77;4.50;;;16.40;49.60;;;;;;5071784;28;20505;-89
2022/06/01 04:06:32;;;;;;;5.03;4.50;;;16.40;49.80;;;;;;5062340;28;20454;-89
2022/06/01 04:08:59;;;;;;;4.70;4.03;;;16.40;50.00;;;;;;5042802;28;20982;-90
2022/06/01 04:11:28;;;;;;;4.43;4.03;;;16.40;50.00;;;;;;5071062;28;20477;-90
2022/06/01 04:13:55;;;;;;;4.57;4.17;;;16.50;50.00;;;;;;5058133;28;20547;-87
2022/06/01 04:16:22;;;;;;;4.33;3.93;;;16.50;50.00;;;;;;5044746;28;20835;-90
2022/06/01 04:18:50;;;;;;;5.20;4.17;;;16.50;50.00;;;;;;5061147;28;20547;-89
2022/06/01 04:21:22;;;;;;;4.10;3.80;;;16.50;49.70;;;;;;5057290;28;20451;-90
2022/06/01 04:23:50;;;;;;;5.63;3.93;;;16.60;49.90;;;;;;5057720;28;20435;-90
2022/06/01 04:26:17;;;;;;;4.20;3.80;;;16.60;50.40;;;;;;5059564;28;20814;-90
2022/06/01 04:28:46;;;;;;;6.93;4.20;;;16.60;50.20;;;;;;5063267;28;20477;-90
2022/06/01 04:31:13;;;;;;;4.73;4.10;;;16.60;50.60;;;;;;5056618;28;21017;-90
2022/06/01 04:33:42;;;;;;;4.27;3.87;;;16.50;50.60;;;;;;5063861;28;20772;-90
2022/06/01 04:36:09;;;;;;;6.63;4.13;;;16.50;50.70;;;;;;5054529;28;20470;-89
2022/06/01 04:38:37;;;;;;;5.33;4.23;;;16.50;50.60;;;;;;5056152;28;20474;-90
2022/06/01 04:41:04;;;;;;;4.70;4.20;;;16.60;51.00;;;;;;5043270;28;20471;-90
2022/06/01 04:43:31;;;;;;;5.27;4.63;;;16.50;51.30;;;;;;5058420;28;20469;-89
2022/06/01 04:46:00;;;;;;;5.00;4.50;;;16.50;51.50;;;;;;5045321;28;20525;-87
2022/06/01 04:48:27;;;;;;;4.90;4.50;;;16.50;51.60;;;;;;5063428;28;20448;-92
2022/06/01 04:50:56;;;;;;;5.87;5.00;;;16.60;51.60;;;;;;5045249;28;20471;-91
2022/06/01 04:53:24;;;;;;;8.40;4.73;;;16.70;51.50;;;;;;5043445;28;21382;-90
2022/06/01 04:55:51;;;;;;;5.63;5.13;;;16.70;51.20;;;;;;5054068;28;20487;-90
2022/06/01 04:58:19;;;;;;;4.93;4.30;;;16.70;51.20;;;;;;5046000;28;20455;-90
2022/06/01 05:00:48;;;;;;;4.77;3.80;;;16.80;51.50;;;;;;5054448;28;20907;-90
2022/06/01 05:03:16;;;;;;;5.50;4.53;;;16.80;51.30;;;;;;5072492;28;20440;-89
2022/06/01 05:05:43;;;;;;;4.83;3.97;;;16.80;51.30;;;;;;5077689;28;20907;-92
2022/06/01 05:08:14;;;;;;;5.00;4.60;;;16.80;51.40;;;;;;5094662;28;20828;-90
2022/06/01 05:10:41;;;;;;;7.00;4.63;;;16.80;51.60;;;;;;5050809;28;20467;-90
2022/06/01 05:13:09;;;;;;;5.20;4.70;;;16.80;51.50;;;;;;5074106;28;20479;-90
2022/06/01 05:15:42;;;;;;;4.03;3.63;;;16.90;51.50;;;;;;5046059;28;20530;-90
2022/06/01 05:18:10;;;;;;;7.33;5.10;;;16.90;51.80;;;;;;5065170;28;20961;-89
2022/06/01 05:20:38;;;;;;;4.40;4.10;;;17.00;51.80;;;;;;5077236;28;20970;-90
2022/06/01 05:23:05;;;;;;;5.90;4.73;;;17.20;51.60;;;;;;5066496;28;20543;-90
2022/06/01 05:25:32;;;;;;;5.90;5.00;;;17.00;52.00;;;;;;5074275;28;20457;-90
2022/06/01 05:27:59;;;;;;;6.60;4.67;;;17.00;51.90;;;;;;5060176;28;21167;-92
2022/06/01 05:30:27;;;;;;;5.53;4.60;;;17.00;52.10;;;;;;5061626;28;20512;-89
2022/06/01 05:32:54;;;;;;;9.43;5.10;;;17.10;52.20;;;;;;5076250;28;20541;-90
2022/06/01 05:35:21;;;;;;;6.43;4.60;;;17.20;52.40;;;;;;5059907;28;20431;-90
2022/06/01 05:37:50;;;;;;;5.23;4.70;;;17.10;52.60;;;;;;5059826;28;20485;-89
2022/06/01 05:40:17;;;;;;;5.47;5.00;;;17.20;52.70;;;;;;5045281;28;20727;-90
2022/06/01 05:42:44;;;;;;;5.13;4.63;;;17.30;52.40;;;;;;5075290;28;20447;-90
2022/06/01 05:45:11;;;;;;;4.70;4.30;;;17.40;52.30;;;;;;5056665;28;20445;-90
2022/06/01 05:47:39;;;;;;;5.63;5.13;;;17.50;52.20;;;;;;5049960;28;20451;-91
2022/06/01 05:50:06;;;;;;;6.23;4.73;;;17.30;52.40;;;;;;5060539;28;20686;-90
2022/06/01 05:52:34;;;;;;;9.03;4.80;;;17.20;52.80;;;;;;5049925;28;20450;-90
2022/06/01 05:55:03;;;;;;;5.57;4.80;;;17.20;52.90;;;;;;5049494;28;20509;-90
2022/06/01 05:57:31;;;;;;;6.70;5.27;;;17.40;52.70;;;;;;5059813;28;20543;-90
2022/06/01 05:59:58;;;;;;;6.03;5.43;;;17.40;52.70;;;;;;5060291;28;20479;-87
2022/06/01 06:02:25;;;;;;;4.33;3.93;;;17.20;53.30;;;;;;5051512;28;21003;-90
2022/06/01 06:04:52;;;;;;;15.37;5.60;;;16.80;54.10;;;;;;5069751;28;20800;-90
2022/06/01 06:07:19;;;;;;;10.90;6.47;;;17.00;54.20;;;;;;5090094;28;21209;-91
2022/06/01 06:09:46;;;;;;;6.20;5.43;;;17.40;54.20;;;;;;5061962;28;20785;-90
2022/06/01 06:12:15;;;;;;;6.37;4.60;;;17.70;53.70;;;;;;5055094;28;20463;-90
2022/06/01 06:14:42;;;;;;;4.90;3.80;;;17.90;52.80;;;;;;5058341;28;20497;-90
2022/06/01 06:17:10;;;;;;;6.00;4.57;;;18.10;52.80;;;;;;5075145;28;20483;-90
2022/06/01 06:19:38;;;;;;;5.37;4.70;;;18.10;52.70;;;;;;5093168;28;20834;-90
2022/06/01 06:22:06;;;;;;;15.50;5.80;;;18.30;51.90;;;;;;5079099;28;20455;-90
2022/06/01 06:24:34;;;;;;;46.33;15.40;;;18.70;51.80;;;;;;5059536;28;20448;-90
2022/06/01 06:27:01;;;;;;;4.57;4.17;;;19.10;51.90;;;;;;5039919;28;20856;-89
2022/06/01 06:29:29;;;;;;;5.77;4.30;;;19.30;50.00;;;;;;5063494;28;20482;-90
2022/06/01 06:31:56;;;;;;;7.30;4.23;;;19.30;50.50;;;;;;5048350;28;20452;-90
2022/06/01 06:34:23;;;;;;;4.60;4.20;;;19.40;49.60;;;;;;5073296;28;20896;-89
2022/06/01 06:36:51;;;;;;;5.97;4.03;;;19.20;49.30;;;;;;5052130;28;20466;-91
2022/06/01 06:39:18;;;;;;;10.30;4.10;;;19.30;49.20;;;;;;5048650;27;20581;-90
2022/06/01 06:41:45;;;;;;;4.10;3.77;;;19.50;49.30;;;;;;5056849;28;20455;-90
2022/06/01 06:44:12;;;;;;;4.50;4.13;;;19.60;49.00;;;;;;5056826;28;20440;-90
2022/06/01 06:46:41;;;;;;;3.80;3.50;;;19.60;49.60;;;;;;5058697;28;20535;-89
2022/06/01 06:49:09;;;;;;;3.90;3.60;;;20.00;49.20;;;;;;5047161;28;20468;-91
2022/06/01 06:51:37;;;;;;;3.53;3.20;;;20.00;49.00;;;;;;5058866;28;20463;-90
2022/06/01 06:54:05;;;;;;;3.90;3.60;;;19.90;48.40;;;;;;5081815;28;20448;-91
2022/06/01 06:56:32;;;;;;;3.80;3.50;;;20.00;48.30;;;;;;5056778;28;20438;-90
2022/06/01 06:58:58;;;;;;;5.33;4.93;;;20.00;46.70;;;;;;5076760;28;20454;-89
2022/06/01 07:01:25;;;;;;;3.43;3.17;;;20.20;47.30;;;;;;5063344;28;20451;-90
2022/06/01 07:03:54;;;;;;;7.67;2.83;;;20.40;45.30;;;;;;5065420;28;20443;-91
2022/06/01 07:06:21;;;;;;;3.10;2.90;;;20.60;44.50;;;;;;5066630;28;20574;-89
2022/06/01 07:08:52;;;;;;;3.37;3.07;;;20.70;43.70;;;;;;5073882;28;20463;-89
2022/06/01 07:11:21;;;;;;;5.30;3.47;;;20.70;44.70;;;;;;5075823;28;20462;-90
2022/06/01 07:13:49;;;;;;;3.17;2.87;;;20.90;45.60;;;;;;5064059;28;20452;-90
2022/06/01 07:16:19;;;;;;;6.03;3.40;;;21.20;45.00;;;;;;5076525;28;20509;-89
2022/06/01 07:18:49;;;;;;;4.80;2.90;;;21.30;45.00;;;;;;5075262;28;20458;-89
2022/06/01 07:21:20;;;;;;;3.00;2.80;;;21.30;44.70;;;;;;5042234;28;20473;-87
2022/06/01 07:23:49;;;;;;;3.07;2.80;;;21.40;44.00;;;;;;5065611;28;20457;-92
2022/06/01 07:26:20;;;;;;;5.43;3.27;;;21.70;44.00;;;;;;5079663;28;20455;-91
2022/06/01 07:28:47;;;;;;;3.00;2.73;;;21.80;44.10;;;;;;5095643;28;20444;-89
2022/06/01 07:31:14;;;;;;;3.17;2.97;;;21.80;43.60;;;;;;5067430;28;20473;-90
2022/06/01 07:33:43;;;;;;;3.27;2.97;;;22.00;43.50;;;;;;5050585;28;20984;-90
2022/06/01 07:36:12;;;;;;;3.33;3.07;;;22.20;42.70;;;;;;5052024;28;20478;-90
2022/06/01 07:44:15;;;;;;;3.23;2.37;;;22.40;40.30;;;;;;5089392;28;20534;-86
2022/06/01 07:46:42;;;;;;;3.40;3.10;;;22.40;40.30;;;;;;5065850;28;20455;-90
2022/06/01 07:49:09;;;;;;;2.50;2.30;;;22.60;40.80;;;;;;5072662;28;20479;-88
2022/06/01 07:51:37;;;;;;;2.90;2.20;;;22.80;40.80;;;;;;5075061;28;20525;-88
2022/06/01 07:54:06;;;;;;;4.43;2.60;;;22.80;38.40;;;;;;5073181;28;20459;-89
2022/06/01 07:56:33;;;;;;;2.87;2.30;;;22.70;38.40;;;;;;5065421;28;20875;-88
2022/06/01 07:59:00;;;;;;;2.30;2.20;;;22.70;38.80;;;;;;5047378;28;20480;-86
2022/06/01 08:01:27;;;;;;;3.87;2.57;;;22.80;39.10;;;;;;5089193;28;20451;-88
2022/06/01 08:03:56;;;;;;;2.87;2.67;;;22.80;38.90;;;;;;5050797;28;20457;-89
2022/06/01 08:06:23;;;;;;;3.90;2.60;;;22.70;37.50;;;;;;5089243;28;20462;-89
2022/06/01 08:08:50;;;;;;;3.03;2.50;;;22.60;37.00;;;;;;5059536;28;20500;-86
2022/06/01 08:11:18;;;;;;;3.67;2.50;;;22.80;37.90;;;;;;5061242;28;20483;-89
2022/06/01 08:13:44;;;;;;;2.63;2.43;;;23.00;37.70;;;;;;5060935;28;20455;-91
2022/06/01 08:16:12;;;;;;;3.63;2.50;;;23.20;37.10;;;;;;5071951;28;20451;-91
2022/06/01 08:18:38;;;;;;;2.00;1.90;;;22.90;36.40;;;;;;5077474;28;20522;-88
2022/06/01 08:21:05;;;;;;;2.37;2.17;;;23.00;37.40;;;;;;5066344;28;20459;-89
2022/06/01 08:23:33;;;;;;;2.40;2.20;;;23.30;37.20;;;;;;5096527;28;20489;-88
2022/06/01 08:26:00;;;;;;;2.83;2.50;;;23.30;35.70;;;;;;5071755;28;20459;-86
2022/06/01 08:28:28;;;;;;;3.33;2.30;;;23.50;36.20;;;;;;5089642;28;20799;-88
2022/06/01 08:30:55;;;;;;;2.73;2.10;;;23.70;35.60;;;;;;5056414;28;20466;-89
2022/06/01 08:33:23;;;;;;;3.03;2.40;;;23.70;35.30;;;;;;5057501;28;20454;-88
2022/06/01 08:35:52;;;;;;;6.63;2.17;;;23.90;35.30;;;;;;5061885;28;20452;-89
2022/06/01 08:38:19;;;;;;;2.73;1.83;;;24.00;34.80;;;;;;5091267;27;21005;-90
2022/06/01 08:40:53;;;;;;;2.23;2.03;;;24.10;33.90;;;;;;5062049;28;20467;-88
2022/06/01 08:43:23;;;;;;;2.73;2.30;;;23.90;33.80;;;;;;5078617;28;20443;-88
2022/06/01 08:45:56;;;;;;;2.80;1.97;;;23.90;33.10;;;;;;5063074;28;20459;-87
2022/06/01 08:48:30;;;;;;;3.17;2.23;;;24.10;33.60;;;;;;5084480;28;20511;-89
2022/06/01 08:50:58;;;;;;;2.30;2.10;;;24.30;33.20;;;;;;5078373;28;20578;-89
2022/06/01 08:53:25;;;;;;;2.87;2.10;;;24.70;32.90;;;;;;5072400;28;20522;-88
2022/06/01 08:55:56;;;;;;;1.83;1.73;;;24.70;32.10;;;;;;5064768;28;21052;-87
2022/06/01 08:58:31;;;;;;;2.57;1.73;;;24.70;33.40;;;;;;5077300;28;20554;-87
2022/06/01 09:01:06;;;;;;;2.23;1.93;;;24.30;31.80;;;;;;5076135;28;20981;-88
2022/06/01 09:03:38;;;;;;;1.70;1.60;;;24.30;32.30;;;;;;5083713;28;20461;-88
2022/06/01 09:06:12;;;;;;;2.00;1.90;;;24.30;32.10;;;;;;5099697;27;21510;-88
2022/06/01 09:08:47;;;;;;;2.57;2.37;;;24.20;33.50;;;;;;5079424;28;21019;-88
2022/06/01 09:11:17;;;;;;;2.60;1.90;;;24.20;31.90;;;;;;5090790;28;20526;-89
2022/06/01 09:13:53;;;;;;;2.20;2.00;;;24.40;32.80;;;;;;5096797;28;20452;-90
2022/06/01 09:16:26;;;;;;;2.40;2.20;;;24.50;32.20;;;;;;5067653;28;20435;-89
2022/06/01 09:18:55;;;;;;;2.17;2.00;;;24.70;32.50;;;;;;5076759;28;20447;-90
2022/06/01 09:24:09;;;;;;;1.97;1.87;;;25.00;32.00;;;;;;5101229;28;20446;-89
2022/06/01 09:26:54;;;;;;;2.00;1.80;;;25.10;31.30;;;;;;5070504;28;20451;-89
2022/06/01 09:29:23;;;;;;;4.70;2.20;;;25.40;31.40;;;;;;5082432;28;20466;-88
2022/06/01 09:31:58;;;;;;;2.23;2.03;;;25.50;32.20;;;;;;5075376;28;20464;-89
2022/06/01 09:34:31;;;;;;;3.37;1.80;;;25.80;30.40;;;;;;5053926;28;21024;-89
2022/06/01 09:37:05;;;;;;;2.40;1.70;;;25.80;30.30;;;;;;5050124;28;20510;-87
2022/06/01 09:39:33;;;;;;;4.57;2.33;;;25.70;30.10;;;;;;5101362;27;20467;-89
2022/06/01 09:42:16;;;;;;;2.87;2.00;;;25.80;31.00;;;;;;5085425;28;20458;-88
2022/06/01 09:44:46;;;;;;;2.90;2.13;;;25.70;30.00;;;;;;5100689;28;20455;-88
2022/06/01 09:47:29;;;;;;;2.90;2.03;;;25.70;31.10;;;;;;5065049;28;20458;-89
2022/06/01 09:49:59;;;;;;;2.50;1.80;;;25.80;31.20;;;;;;5086932;28;20471;-89
2022/06/01 09:52:31;;;;;;;3.00;2.50;;;25.90;31.50;;;;;;5098218;28;20469;-91
2022/06/01 09:55:13;;;;;;;7.50;2.30;;;26.10;30.10;;;;;;5067480;28;20475;-90
2022/06/01 09:57:40;;;;;;;4.10;2.00;;;26.30;29.40;;;;;;5085679;28;20483;-92
2022/06/01 10:06:12;;;;;;;3.47;2.20;;;26.90;28.30;;;;;;5085776;28;20463;-88
2022/06/01 10:08:42;;;;;;;1.87;1.77;;;27.00;29.10;;;;;;5064395;28;20442;-89
2022/06/01 10:11:35;;;;;;;2.30;1.90;;;27.40;29.70;;;;;;5093453;28;21021;-88
2022/06/01 10:14:20;;;;;;;2.43;2.23;;;27.10;30.00;;;;;;5095496;28;20440;-91
2022/06/01 10:17:11;;;;;;;2.00;1.80;;;26.70;28.70;;;;;;5072126;28;20452;-90
2022/06/01 10:19:44;;;;;;;2.80;2.10;;;26.60;30.00;;;;;;5056074;28;20470;-89
2022/06/01 10:22:18;;;;;;;2.47;2.27;;;26.80;29.10;;;;;;5078136;28;20504;-91
2022/06/01 10:24:50;;;;;;;3.90;2.47;;;26.60;29.50;;;;;;5081975;28;20530;-88
2022/06/01 10:27:22;;;;;;;5.13;2.10;;;26.90;30.20;;;;;;5065560;28;21134;-89
2022/06/01 10:29:59;;;;;;;2.17;1.97;;;27.00;30.20;;;;;;5081647;28;20472;-89
2022/06/01 10:32:33;;;;;;;2.40;2.20;;;27.00;29.20;;;;;;5058259;28;20482;-90
2022/06/01 10:35:15;;;;;;;2.40;2.20;;;27.20;30.00;;;;;;5078923;28;20470;-92
2022/06/01 10:37:52;;;;;;;2.40;2.03;;;27.50;29.00;;;;;;5079517;28;20451;-89
2022/06/01 10:40:26;;;;;;;2.00;1.90;;;27.90;28.90;;;;;;5070596;27;20478;-91
2022/06/01 10:45:47;;;;;;;2.07;1.97;;;28.30;27.60;;;;;;5086138;28;20946;-90
2022/06/01 10:48:16;;;;;;;2.37;2.23;;;28.20;28.60;;;;;;5065893;28;20492;-88
2022/06/01 10:50:53;;;;;;;2.90;2.27;;;28.00;28.30;;;;;;5077291;28;20482;-90
2022/06/01 10:53:31;;;;;;;2.80;1.80;;;27.80;28.10;;;;;;5065358;28;20715;-92
2022/06/01 10:55:59;;;;;;;2.53;2.03;;;27.90;28.00;;;;;;5061110;28;20450;-89
2022/06/01 10:58:27;;;;;;;2.07;1.87;;;28.20;27.30;;;;;;5077929;28;20454;-88
2022/06/01 11:01:07;;;;;;;1.60;1.50;;;28.10;26.90;;;;;;5070306;28;20479;-88
2022/06/01 11:03:59;;;;;;;2.10;2.00;;;28.00;29.00;;;;;;5064428;28;20498;-90
2022/06/01 11:06:46;;;;;;;2.87;1.60;;;28.00;28.90;;;;;;5066483;28;20969;-88
2022/06/01 11:09:22;;;;;;;2.00;1.90;;;27.60;27.50;;;;;;5043529;28;20459;-88
2022/06/01 11:11:56;;;;;;;1.90;1.80;;;26.90;28.70;;;;;;5090979;28;20509;-89
2022/06/01 11:15:00;;;;;;;2.10;1.80;;;26.90;29.60;;;;;;5094191;28;20447;-88
2022/06/01 11:17:34;;;;;;;1.87;1.77;;;27.10;28.90;;;;;;5091965;28;20958;-89
2022/06/01 11:20:18;;;;;;;2.40;2.03;;;27.20;28.50;;;;;;5074350;28;21020;-89
2022/06/01 11:23:02;;;;;;;2.90;1.83;;;27.40;28.10;;;;;;5081857;28;20475;-89
2022/06/01 11:25:33;;;;;;;2.40;2.00;;;27.40;28.80;;;;;;5074548;28;20455;-89
2022/06/01 11:28:27;;;;;;;1.90;1.67;;;27.40;28.40;;;;;;5096806;28;20541;-87
2022/06/01 11:31:05;;;;;;;2.10;1.83;;;27.50;26.40;;;;;;5062081;28;20559;-89
2022/06/01 11:33:38;;;;;;;1.70;1.60;;;27.10;27.00;;;;;;5085903;28;20447;-90
2022/06/01 11:36:18;;;;;;;2.27;1.50;;;27.00;27.40;;;;;;5072997;28;20449;-88
2022/06/01 11:38:51;;;;;;;3.53;1.70;;;27.00;27.80;;;;;;5067855;28;20549;-89
2022/06/01 11:41:23;;;;;;;2.00;1.60;;;27.30;27.70;;;;;;5090440;27;20450;-87
2022/06/01 11:43:55;;;;;;;1.50;1.40;;;27.90;28.30;;;;;;5060221;28;20526;-88
2022/06/01 11:46:25;;;;;;;4.03;2.00;;;28.20;27.10;;;;;;5073470;28;20474;-91
2022/06/01 11:48:57;;;;;;;2.10;1.90;;;28.00;27.30;;;;;;5058454;28;20448;-89
2022/06/01 11:51:44;;;;;;;3.43;2.13;;;27.80;28.20;;;;;;5096653;28;20468;-91
2022/06/01 11:54:16;;;;;;;2.57;1.77;;;27.90;28.30;;;;;;5078360;28;20537;-89
2022/06/01 11:56:45;;;;;;;1.50;1.40;;;28.10;27.80;;;;;;5047049;28;20958;-90
2022/06/01 11:59:22;;;;;;;2.10;1.90;;;28.20;27.30;;;;;;5096075;28;20479;-89
2022/06/01 12:01:56;;;;;;;2.70;1.30;;;28.20;26.20;;;;;;5074430;28;20950;-89
2022/06/01 12:04:33;;;;;;;2.53;1.40;;;28.10;26.10;;;;;;5048417;28;20451;-89
2022/06/01 12:07:06;;;;;;;1.80;1.43;;;27.70;25.40;;;;;;5066086;28;20489;-90
2022/06/01 12:09:45;;;;;;;2.00;1.50;;;28.00;26.60;;;;;;5093247;28;20533;-89
2022/06/01 12:12:44;;;;;;;1.40;1.30;;;28.10;25.80;;;;;;5072079;28;20460;-87
2022/06/01 12:15:24;;;;;;;4.73;1.60;;;28.00;27.60;;;;;;5091555;28;20446;-89
2022/06/01 12:18:16;;;;;;;2.13;1.80;;;28.30;26.00;;;;;;5093619;28;20446;-89
2022/06/01 12:20:48;;;;;;;1.67;1.43;;;28.20;25.40;;;;;;5076097;28;20478;-91
2022/06/01 12:30:10;;;;;;;3.73;2.13;;;28.30;26.80;;;;;;5056095;28;20462;-89
2022/06/01 12:33:08;;;;;;;1.80;1.63;;;28.80;25.20;;;;;;5088172;28;20479;-89
2022/06/01 12:35:45;;;;;;;1.73;1.63;;;29.20;26.00;;;;;;5095332;28;20450;-87
2022/06/01 12:38:33;;;;;;;8.10;1.50;;;29.10;24.30;;;;;;5063978;28;20446;-89
2022/06/01 12:41:17;;;;;;;2.33;1.97;;;28.30;25.60;;;;;;5088682;28;20463;-89
2022/06/01 12:43:52;;;;;;;1.40;1.30;;;28.20;26.60;;;;;;5075212;28;20451;-90
2022/06/01 12:46:22;;;;;;;2.23;1.60;;;28.10;25.70;;;;;;5090674;28;20478;-88
2022/06/01 12:48:49;;;;;;;2.90;1.50;;;27.80;25.50;;;;;;5072844;28;20742;-90
2022/06/01 12:51:17;;;;;;;1.53;1.43;;;27.50;25.60;;;;;;5057108;28;20948;-88
2022/06/01 12:53:47;;;;;;;5.20;1.70;;;27.70;27.10;;;;;;5093219;28;20447;-89
2022/06/01 12:56:17;;;;;;;1.40;1.30;;;28.00;26.50;;;;;;5090477;28;20458;-88
2022/06/01 12:58:45;;;;;;;4.87;1.70;;;28.00;26.70;;;;;;5072985;28;20450;-87
2022/06/01 13:01:16;;;;;;;1.50;1.40;;;28.10;26.40;;;;;;5075537;28;20535;-87
2022/06/01 13:03:45;;;;;;;5.30;1.53;;;27.50;25.90;;;;;;5093012;28;21210;-90
2022/06/01 13:06:17;;;;;;;2.10;1.60;;;27.70;27.40;;;;;;5039986;28;20466;-88
2022/06/01 13:08:46;;;;;;;1.60;1.50;;;27.90;26.90;;;;;;5087030;28;20997;-87
2022/06/01 13:11:17;;;;;;;1.40;1.30;;;27.50;26.00;;;;;;5072952;28;20870;-88
2022/06/01 13:13:45;;;;;;;3.90;1.77;;;27.40;25.90;;;;;;5075475;28;20467;-88
2022/06/01 13:16:14;;;;;;;2.63;1.50;;;27.80;26.60;;;;;;5073585;28;20443;-89
2022/06/01 13:18:44;;;;;;;5.43;1.93;;;28.10;25.40;;;;;;5043560;28;20476;-87
2022/06/01 13:21:18;;;;;;;1.40;1.30;;;28.30;26.30;;;;;;5057214;28;20452;-88
2022/06/01 13:23:55;;;;;;;1.53;1.43;;;28.40;26.40;;;;;;5072133;28;20434;-87
2022/06/01 13:26:31;;;;;;;2.70;1.40;;;28.70;25.80;;;;;;5083329;28;20980;-89
2022/06/01 13:29:15;;;;;;;2.27;1.67;;;28.60;25.40;;;;;;5073547;28;20450;-86
2022/06/01 13:31:46;;;;;;;2.57;1.43;;;28.60;26.00;;;;;;5073295;28;20962;-87
2022/06/01 13:34:21;;;;;;;1.67;1.50;;;28.40;25.40;;;;;;5044852;28;20454;-89
2022/06/01 13:36:49;;;;;;;1.70;1.60;;;28.40;25.30;;;;;;5091221;28;20429;-87
2022/06/01 13:39:29;;;;;;;1.73;1.53;;;27.90;25.90;;;;;;5073878;28;20533;-88
2022/06/01 13:42:00;;;;;;;2.53;1.90;;;28.00;26.10;;;;;;5074241;28;20441;-88